sensor_id;sensor_type;location;lat;lon;timestamp;pressure;altitude;pressure_sealevel;temperature;humidity
76815;BME280;65768;49.906;19.384;2024-01-07T00:01:08;97579.61;;;0.43;100.00
76815;BME280;65768;49.906;19.384;2024-01-07T00:03:55;97580.30;;;0.43;100.00
76815;BME280;65768;49.906;19.384;2024-01-07T00:06:23;97585.23;;;0.30;100.00
76815;BME280;65768;49.906;19.384;2024-01-07T00:08:50;97581.42;;;0.24;100.00
76815;BME280;65768;49.906;19.384;2024-01-07T00:11:17;97573.89;;;0.06;100.00
76815;BME280;65768;49.906;19.384;2024-01-07T00:13:45;97580.14;;;0.04;100.00
76815;BME280;65768;49.906;19.384;2024-01-07T00:16:12;97583.59;;;-0.00;100.00
76815;BME280;65768;49.906;19.384;2024-01-07T00:18:39;97582.60;;;0.06;100.00
76815;BME280;65768;49.906;19.384;2024-01-07T00:21:07;97585.68;;;0.17;100.00
76815;BME280;65768;49.906;19.384;2024-01-07T00:23:34;97584.87;;;0.18;100.00
76815;BME280;65768;49.906;19.384;2024-01-07T00:26:01;97589.73;;;0.14;100.00
76815;BME280;65768;49.906;19.384;2024-01-07T00:28:30;97589.13;;;0.29;100.00
76815;BME280;65768;49.906;19.384;2024-01-07T00:30:57;97592.90;;;-0.10;100.00
76815;BME280;65768;49.906;19.384;2024-01-07T00:33:24;97597.55;;;0.02;100.00
76815;BME280;65768;49.906;19.384;2024-01-07T00:35:51;97598.90;;;0.06;100.00
76815;BME280;65768;49.906;19.384;2024-01-07T00:38:18;97603.23;;;-0.24;100.00
76815;BME280;65768;49.906;19.384;2024-01-07T00:40:45;97601.58;;;-0.17;100.00
76815;BME280;65768;49.906;19.384;2024-01-07T00:43:12;97600.90;;;-0.06;100.00
76815;BME280;65768;49.906;19.384;2024-01-07T00:45:39;97605.04;;;-0.05;100.00
76815;BME280;65768;49.906;19.384;2024-01-07T00:48:06;97607.90;;;-0.07;100.00
76815;BME280;65768;49.906;19.384;2024-01-07T00:50:33;97610.63;;;-0.18;100.00
76815;BME280;65768;49.906;19.384;2024-01-07T00:53:00;97605.04;;;-0.11;100.00
76815;BME280;65768;49.906;19.384;2024-01-07T00:55:27;97610.08;;;-0.24;100.00
76815;BME280;65768;49.906;19.384;2024-01-07T00:57:53;97613.77;;;-0.11;100.00
76815;BME280;65768;49.906;19.384;2024-01-07T01:00:20;97608.99;;;-0.15;100.00
76815;BME280;65768;49.906;19.384;2024-01-07T01:02:47;97612.58;;;-0.16;100.00
76815;BME280;65768;49.906;19.384;2024-01-07T01:05:14;97616.33;;;-0.11;100.00
76815;BME280;65768;49.906;19.384;2024-01-07T01:07:41;97619.05;;;-0.11;100.00
76815;BME280;65768;49.906;19.384;2024-01-07T01:10:09;97618.91;;;-0.00;100.00
76815;BME280;65768;49.906;19.384;2024-01-07T01:12:36;97623.98;;;-0.08;100.00
76815;BME280;65768;49.906;19.384;2024-01-07T01:15:03;97624.35;;;-0.12;100.00
76815;BME280;65768;49.906;19.384;2024-01-07T01:17:30;97629.23;;;-0.10;100.00
76815;BME280;65768;49.906;19.384;2024-01-07T01:19:57;97623.45;;;-0.08;99.93
76815;BME280;65768;49.906;19.384;2024-01-07T01:22:23;97629.39;;;-0.09;99.45
76815;BME280;65768;49.906;19.384;2024-01-07T01:24:51;97631.29;;;-0.20;99.66
76815;BME280;65768;49.906;19.384;2024-01-07T01:27:19;97633.95;;;-0.28;99.85
76815;BME280;65768;49.906;19.384;2024-01-07T01:29:46;97635.88;;;-0.36;100.00
76815;BME280;65768;49.906;19.384;2024-01-07T01:32:13;97636.77;;;-0.15;99.66
76815;BME280;65768;49.906;19.384;2024-01-07T01:34:40;97637.84;;;-0.29;99.56
76815;BME280;65768;49.906;19.384;2024-01-07T01:37:08;97635.36;;;-0.21;99.22
76815;BME280;65768;49.906;19.384;2024-01-07T01:39:35;97639.30;;;-0.26;99.46
76815;BME280;65768;49.906;19.384;2024-01-07T01:42:02;97633.16;;;-0.30;99.32
76815;BME280;65768;49.906;19.384;2024-01-07T01:44:29;97637.70;;;-0.28;99.39
76815;BME280;65768;49.906;19.384;2024-01-07T01:46:55;97641.58;;;-0.25;99.10
76815;BME280;65768;49.906;19.384;2024-01-07T01:49:23;97634.96;;;-0.23;99.39
76815;BME280;65768;49.906;19.384;2024-01-07T01:51:50;97635.53;;;-0.10;98.62
76815;BME280;65768;49.906;19.384;2024-01-07T01:54:20;97636.81;;;-0.02;98.03
76815;BME280;65768;49.906;19.384;2024-01-07T01:56:48;97637.70;;;-0.28;99.10
76815;BME280;65768;49.906;19.384;2024-01-07T01:59:15;97642.30;;;-0.13;98.75
76815;BME280;65768;49.906;19.384;2024-01-07T02:01:42;97641.16;;;-0.22;98.67
76815;BME280;65768;49.906;19.384;2024-01-07T02:04:10;97640.25;;;-0.34;99.60
76815;BME280;65768;49.906;19.384;2024-01-07T02:06:37;97638.88;;;-0.08;99.10
76815;BME280;65768;49.906;19.384;2024-01-07T02:09:04;97643.58;;;-0.26;99.05
76815;BME280;65768;49.906;19.384;2024-01-07T02:11:31;97643.73;;;-0.17;98.74
76815;BME280;65768;49.906;19.384;2024-01-07T02:13:58;97640.36;;;-0.20;98.35
76815;BME280;65768;49.906;19.384;2024-01-07T02:16:25;97642.91;;;-0.10;97.87
76815;BME280;65768;49.906;19.384;2024-01-07T02:18:52;97643.71;;;-0.32;97.77
76815;BME280;65768;49.906;19.384;2024-01-07T02:21:18;97645.21;;;-0.29;98.37
76815;BME280;65768;49.906;19.384;2024-01-07T02:23:45;97638.98;;;-0.31;98.59
76815;BME280;65768;49.906;19.384;2024-01-07T02:26:12;97644.21;;;-0.27;98.65
76815;BME280;65768;49.906;19.384;2024-01-07T02:28:39;97647.30;;;-0.33;99.04
76815;BME280;65768;49.906;19.384;2024-01-07T02:31:06;97644.60;;;-0.57;99.80
76815;BME280;65768;49.906;19.384;2024-01-07T02:33:32;97642.58;;;-0.40;99.79
76815;BME280;65768;49.906;19.384;2024-01-07T02:35:59;97645.84;;;-0.20;99.18
76815;BME280;65768;49.906;19.384;2024-01-07T02:38:26;97643.16;;;-0.49;99.48
76815;BME280;65768;49.906;19.384;2024-01-07T02:40:53;97641.56;;;-0.66;99.74
76815;BME280;65768;49.906;19.384;2024-01-07T02:43:20;97643.73;;;-0.67;99.69
76815;BME280;65768;49.906;19.384;2024-01-07T02:45:47;97648.05;;;-0.61;99.63
76815;BME280;65768;49.906;19.384;2024-01-07T02:48:13;97647.20;;;-0.51;99.04
76815;BME280;65768;49.906;19.384;2024-01-07T02:50:40;97643.61;;;-0.66;99.35
76815;BME280;65768;49.906;19.384;2024-01-07T02:53:07;97640.30;;;-0.97;99.78
76815;BME280;65768;49.906;19.384;2024-01-07T02:55:36;97643.50;;;-0.78;99.45
76815;BME280;65768;49.906;19.384;2024-01-07T02:58:03;97649.79;;;-0.80;99.47
76815;BME280;65768;49.906;19.384;2024-01-07T03:00:55;97651.33;;;-0.75;99.33
76815;BME280;65768;49.906;19.384;2024-01-07T03:03:22;97653.30;;;-0.72;99.27
76815;BME280;65768;49.906;19.384;2024-01-07T03:05:49;97655.52;;;-1.01;100.00
76815;BME280;65768;49.906;19.384;2024-01-07T03:08:16;97655.27;;;-0.79;99.67
76815;BME280;65768;49.906;19.384;2024-01-07T03:10:42;97655.13;;;-0.84;99.23
76815;BME280;65768;49.906;19.384;2024-01-07T03:13:11;97660.81;;;-1.12;99.61
76815;BME280;65768;49.906;19.384;2024-01-07T03:15:37;97656.02;;;-0.87;99.33
76815;BME280;65768;49.906;19.384;2024-01-07T03:18:04;97658.04;;;-0.78;98.82
76815;BME280;65768;49.906;19.384;2024-01-07T03:20:31;97659.99;;;-1.24;99.46
76815;BME280;65768;49.906;19.384;2024-01-07T03:23:00;97655.33;;;-1.30;99.89
76815;BME280;65768;49.906;19.384;2024-01-07T03:25:27;97656.61;;;-1.23;99.67
76815;BME280;65768;49.906;19.384;2024-01-07T03:27:53;97657.71;;;-1.26;99.14
76815;BME280;65768;49.906;19.384;2024-01-07T03:30:20;97660.22;;;-1.22;98.73
76815;BME280;65768;49.906;19.384;2024-01-07T03:32:47;97665.92;;;-1.06;98.19
76815;BME280;65768;49.906;19.384;2024-01-07T03:35:14;97669.23;;;-1.32;99.23
76815;BME280;65768;49.906;19.384;2024-01-07T03:37:41;97661.80;;;-1.26;99.42
76815;BME280;65768;49.906;19.384;2024-01-07T03:40:11;97658.89;;;-1.12;99.06
76815;BME280;65768;49.906;19.384;2024-01-07T03:42:41;97660.15;;;-1.20;98.47
76815;BME280;65768;49.906;19.384;2024-01-07T03:45:08;97657.91;;;-1.16;97.85
76815;BME280;65768;49.906;19.384;2024-01-07T03:47:35;97661.98;;;-1.21;97.65
76815;BME280;65768;49.906;19.384;2024-01-07T03:50:02;97661.46;;;-1.26;97.72
76815;BME280;65768;49.906;19.384;2024-01-07T03:52:28;97666.10;;;-1.39;97.77
76815;BME280;65768;49.906;19.384;2024-01-07T03:54:56;97670.83;;;-1.53;99.21
76815;BME280;65768;49.906;19.384;2024-01-07T03:57:23;97668.52;;;-1.42;98.28
76815;BME280;65768;49.906;19.384;2024-01-07T03:59:50;97675.56;;;-1.37;97.74
76815;BME280;65768;49.906;19.384;2024-01-07T04:02:16;97678.64;;;-1.54;98.17
76815;BME280;65768;49.906;19.384;2024-01-07T04:04:43;97676.98;;;-1.35;97.40
76815;BME280;65768;49.906;19.384;2024-01-07T04:07:10;97681.09;;;-1.40;97.19
76815;BME280;65768;49.906;19.384;2024-01-07T04:09:37;97680.99;;;-1.64;98.32
76815;BME280;65768;49.906;19.384;2024-01-07T04:12:04;97688.34;;;-1.64;97.80
76815;BME280;65768;49.906;19.384;2024-01-07T04:14:31;97683.20;;;-1.78;98.07
76815;BME280;65768;49.906;19.384;2024-01-07T04:17:00;97680.02;;;-1.97;98.19
76815;BME280;65768;49.906;19.384;2024-01-07T04:19:27;97678.92;;;-1.78;97.14
76815;BME280;65768;49.906;19.384;2024-01-07T04:21:54;97681.73;;;-1.80;97.47
76815;BME280;65768;49.906;19.384;2024-01-07T04:24:20;97684.11;;;-1.90;97.77
76815;BME280;65768;49.906;19.384;2024-01-07T04:26:47;97685.79;;;-1.86;97.21
76815;BME280;65768;49.906;19.384;2024-01-07T04:29:14;97688.85;;;-1.86;97.27
76815;BME280;65768;49.906;19.384;2024-01-07T04:31:41;97693.08;;;-2.00;98.33
76815;BME280;65768;49.906;19.384;2024-01-07T04:34:08;97701.10;;;-1.87;97.67
76815;BME280;65768;49.906;19.384;2024-01-07T04:36:34;97699.48;;;-1.98;98.30
76815;BME280;65768;49.906;19.384;2024-01-07T04:39:01;97698.77;;;-1.98;97.97
76815;BME280;65768;49.906;19.384;2024-01-07T04:41:28;97697.17;;;-2.00;96.94
76815;BME280;65768;49.906;19.384;2024-01-07T04:43:55;97701.10;;;-2.13;98.25
76815;BME280;65768;49.906;19.384;2024-01-07T04:46:22;97702.90;;;-2.27;97.93
76815;BME280;65768;49.906;19.384;2024-01-07T04:48:49;97707.17;;;-2.18;98.05
76815;BME280;65768;49.906;19.384;2024-01-07T04:51:15;97706.25;;;-2.16;98.63
76815;BME280;65768;49.906;19.384;2024-01-07T04:53:42;97708.19;;;-2.06;98.19
76815;BME280;65768;49.906;19.384;2024-01-07T04:56:09;97712.69;;;-2.09;98.17
76815;BME280;65768;49.906;19.384;2024-01-07T04:58:36;97715.05;;;-2.26;98.91
76815;BME280;65768;49.906;19.384;2024-01-07T05:01:03;97714.48;;;-1.94;97.90
76815;BME280;65768;49.906;19.384;2024-01-07T05:03:30;97719.44;;;-1.98;97.34
76815;BME280;65768;49.906;19.384;2024-01-07T05:05:57;97718.48;;;-2.05;97.55
76815;BME280;65768;49.906;19.384;2024-01-07T05:08:23;97727.20;;;-2.17;97.18
76815;BME280;65768;49.906;19.384;2024-01-07T05:10:50;97727.27;;;-2.24;97.69
76815;BME280;65768;49.906;19.384;2024-01-07T05:13:17;97730.80;;;-2.25;97.58
76815;BME280;65768;49.906;19.384;2024-01-07T05:15:44;97736.36;;;-1.98;96.76
76815;BME280;65768;49.906;19.384;2024-01-07T05:18:12;97734.08;;;-2.04;96.82
76815;BME280;65768;49.906;19.384;2024-01-07T05:20:39;97734.40;;;-2.04;96.24
76815;BME280;65768;49.906;19.384;2024-01-07T05:23:06;97735.03;;;-2.05;96.49
76815;BME280;65768;49.906;19.384;2024-01-07T05:25:33;97736.11;;;-2.00;95.70
76815;BME280;65768;49.906;19.384;2024-01-07T05:28:00;97736.70;;;-2.06;96.06
76815;BME280;65768;49.906;19.384;2024-01-07T05:30:27;97740.80;;;-2.35;97.28
76815;BME280;65768;49.906;19.384;2024-01-07T05:32:54;97741.67;;;-2.22;97.09
76815;BME280;65768;49.906;19.384;2024-01-07T05:35:20;97743.88;;;-2.30;97.16
76815;BME280;65768;49.906;19.384;2024-01-07T05:37:47;97741.91;;;-2.16;96.54
76815;BME280;65768;49.906;19.384;2024-01-07T05:40:14;97742.54;;;-2.38;96.61
76815;BME280;65768;49.906;19.384;2024-01-07T05:42:41;97749.27;;;-2.20;96.52
76815;BME280;65768;49.906;19.384;2024-01-07T05:45:08;97751.84;;;-2.16;96.20
76815;BME280;65768;49.906;19.384;2024-01-07T05:47:35;97757.45;;;-2.12;95.79
76815;BME280;65768;49.906;19.384;2024-01-07T05:50:02;97755.66;;;-2.30;96.30
76815;BME280;65768;49.906;19.384;2024-01-07T05:52:29;97749.04;;;-2.26;95.84
76815;BME280;65768;49.906;19.384;2024-01-07T05:54:56;97760.90;;;-2.20;95.22
76815;BME280;65768;49.906;19.384;2024-01-07T05:57:23;97758.82;;;-2.24;94.97
76815;BME280;65768;49.906;19.384;2024-01-07T05:59:49;97758.89;;;-2.38;95.04
76815;BME280;65768;49.906;19.384;2024-01-07T06:02:17;97760.91;;;-2.35;95.12
76815;BME280;65768;49.906;19.384;2024-01-07T06:04:44;97760.44;;;-2.38;94.66
76815;BME280;65768;49.906;19.384;2024-01-07T06:07:11;97756.51;;;-2.62;95.48
76815;BME280;65768;49.906;19.384;2024-01-07T06:09:37;97768.32;;;-2.30;94.98
76815;BME280;65768;49.906;19.384;2024-01-07T06:12:05;97771.24;;;-2.41;94.26
76815;BME280;65768;49.906;19.384;2024-01-07T06:14:32;97770.41;;;-2.72;95.58
76815;BME280;65768;49.906;19.384;2024-01-07T06:17:00;97767.17;;;-2.71;95.53
76815;BME280;65768;49.906;19.384;2024-01-07T06:19:27;97780.71;;;-2.43;95.18
76815;BME280;65768;49.906;19.384;2024-01-07T06:21:54;97781.56;;;-2.47;94.77
76815;BME280;65768;49.906;19.384;2024-01-07T06:24:21;97781.59;;;-2.47;95.49
76815;BME280;65768;49.906;19.384;2024-01-07T06:26:47;97785.84;;;-2.50;94.62
76815;BME280;65768;49.906;19.384;2024-01-07T06:29:14;97788.85;;;-2.48;95.05
76815;BME280;65768;49.906;19.384;2024-01-07T06:31:44;97790.69;;;-2.61;95.08
76815;BME280;65768;49.906;19.384;2024-01-07T06:34:12;97793.04;;;-2.50;94.39
76815;BME280;65768;49.906;19.384;2024-01-07T06:36:40;97795.10;;;-2.41;93.72
76815;BME280;65768;49.906;19.384;2024-01-07T06:39:10;97795.48;;;-2.56;94.18
76815;BME280;65768;49.906;19.384;2024-01-07T06:41:37;97798.17;;;-2.53;94.06
76815;BME280;65768;49.906;19.384;2024-01-07T06:44:04;97801.60;;;-2.37;93.27
76815;BME280;65768;49.906;19.384;2024-01-07T06:46:31;97809.55;;;-2.24;92.87
76815;BME280;65768;49.906;19.384;2024-01-07T06:48:58;97812.36;;;-2.29;92.44
76815;BME280;65768;49.906;19.384;2024-01-07T06:51:25;97812.79;;;-2.35;92.70
76815;BME280;65768;49.906;19.384;2024-01-07T06:53:52;97817.64;;;-2.37;92.26
76815;BME280;65768;49.906;19.384;2024-01-07T06:56:19;97821.20;;;-2.46;92.67
76815;BME280;65768;49.906;19.384;2024-01-07T06:58:46;97823.92;;;-2.34;92.09
76815;BME280;65768;49.906;19.384;2024-01-07T07:01:13;97821.17;;;-2.43;92.51
76815;BME280;65768;49.906;19.384;2024-01-07T07:03:40;97825.52;;;-2.29;92.67
76815;BME280;65768;49.906;19.384;2024-01-07T07:06:07;97826.33;;;-2.18;92.23
76815;BME280;65768;49.906;19.384;2024-01-07T07:08:34;97827.45;;;-2.24;92.66
76815;BME280;65768;49.906;19.384;2024-01-07T07:11:01;97830.30;;;-2.17;92.27
76815;BME280;65768;49.906;19.384;2024-01-07T07:13:28;97834.94;;;-2.20;92.63
76815;BME280;65768;49.906;19.384;2024-01-07T07:15:55;97837.84;;;-2.13;91.87
76815;BME280;65768;49.906;19.384;2024-01-07T07:18:22;97838.20;;;-2.24;92.03
76815;BME280;65768;49.906;19.384;2024-01-07T07:20:49;97841.73;;;-2.29;91.91
76815;BME280;65768;49.906;19.384;2024-01-07T07:23:15;97841.94;;;-2.28;92.48
76815;BME280;65768;49.906;19.384;2024-01-07T07:25:42;97842.55;;;-2.14;92.29
76815;BME280;65768;49.906;19.384;2024-01-07T07:28:09;97842.27;;;-2.32;92.52
76815;BME280;65768;49.906;19.384;2024-01-07T07:30:36;97842.43;;;-2.41;92.95
76815;BME280;65768;49.906;19.384;2024-01-07T07:33:03;97846.20;;;-2.17;92.53
76815;BME280;65768;49.906;19.384;2024-01-07T07:35:30;97849.03;;;-2.03;92.35
76815;BME280;65768;49.906;19.384;2024-01-07T07:37:57;97854.41;;;-1.81;91.66
76815;BME280;65768;49.906;19.384;2024-01-07T07:40:24;97856.39;;;-2.06;92.21
76815;BME280;65768;49.906;19.384;2024-01-07T07:42:51;97862.71;;;-2.02;92.41
76815;BME280;65768;49.906;19.384;2024-01-07T07:45:18;97862.24;;;-1.89;91.95
76815;BME280;65768;49.906;19.384;2024-01-07T07:47:44;97862.16;;;-2.07;91.77
76815;BME280;65768;49.906;19.384;2024-01-07T07:50:11;97856.59;;;-2.21;92.47
76815;BME280;65768;49.906;19.384;2024-01-07T07:52:38;97859.71;;;-2.24;92.73
76815;BME280;65768;49.906;19.384;2024-01-07T07:55:06;97859.40;;;-1.92;92.09
76815;BME280;65768;49.906;19.384;2024-01-07T07:57:33;97863.23;;;-1.86;91.49
76815;BME280;65768;49.906;19.384;2024-01-07T08:00:01;97868.17;;;-1.86;91.44
76815;BME280;65768;49.906;19.384;2024-01-07T08:02:28;97871.13;;;-1.85;91.17
76815;BME280;65768;49.906;19.384;2024-01-07T08:04:55;97874.23;;;-1.96;91.04
76815;BME280;65768;49.906;19.384;2024-01-07T08:07:22;97877.18;;;-1.79;91.45
76815;BME280;65768;49.906;19.384;2024-01-07T08:09:49;97875.83;;;-1.55;90.36
76815;BME280;65768;49.906;19.384;2024-01-07T08:12:15;97883.09;;;-1.85;89.85
76815;BME280;65768;49.906;19.384;2024-01-07T08:14:45;97877.70;;;-1.72;89.77
76815;BME280;65768;49.906;19.384;2024-01-07T08:17:11;97879.98;;;-1.78;89.98
76815;BME280;65768;49.906;19.384;2024-01-07T08:19:38;97890.46;;;-1.53;89.06
76815;BME280;65768;49.906;19.384;2024-01-07T08:22:05;97886.10;;;-1.67;88.81
76815;BME280;65768;49.906;19.384;2024-01-07T08:24:32;97889.23;;;-1.85;88.63
76815;BME280;65768;49.906;19.384;2024-01-07T08:27:00;97894.02;;;-1.78;88.62
76815;BME280;65768;49.906;19.384;2024-01-07T08:29:27;97887.95;;;-1.91;88.73
